Time;durP1;ratioP1;P1;durP2;ratioP2;P2;SDS_P1;SDS_P2;PMS_P1;PMS_P2;Temp;Humidity;BMP_temperature;BMP_pressure;BME280_temperature;BME280_humidity;BME280_pressure;Samples;Min_cycle;Max_cycle;Signal;HPM_P1;HPM_P2
2021/12/14 00:02:50;;;;;;;;;;;;;;;-5.79;40.33;98653.13;6400864;27;20408;-63
2021/12/14 00:05:51;;;;;;;;;;;;;;;-5.82;40.20;98660.72;6401236;27;20438;-63
2021/12/14 00:08:59;;;;;;;;;;;;;;;-5.76;40.32;98655.75;6401348;27;19923;-63
2021/12/14 00:15:13;;;;;;;;;;;;;;;-5.75;40.23;98649.78;6399891;27;19923;-63
2021/12/14 00:18:17;;;;;;;;;;;;;;;-5.73;40.22;98648.16;6401265;27;19922;-63
2021/12/14 00:21:28;;;;;;;;;;;;;;;-5.82;40.29;98643.63;6400769;27;20425;-63
2021/12/14 00:24:29;;;;;;;;;;;;;;;-5.73;40.35;98643.88;6400423;27;19923;-63
2021/12/14 00:27:30;;;;;;;;;;;;;;;-5.59;39.63;98658.81;6400050;27;19927;-63
2021/12/14 00:30:35;;;;;;;;;;;;;;;-5.38;39.06;98656.78;6400615;27;19923;-63
2021/12/14 00:33:38;;;;;;;;;;;;;;;-5.61;39.89;98648.47;6399986;27;19923;-63
2021/12/14 00:36:42;;;;;;;;;;;;;;;-5.59;39.70;98657.09;6400469;27;20388;-64
2021/12/14 00:39:43;;;;;;;;;;;;;;;-5.57;39.88;98654.59;6399997;27;19979;-63
2021/12/14 00:42:48;;;;;;;;;;;;;;;-5.46;38.99;98654.03;6398265;27;20292;-62
2021/12/14 00:45:52;;;;;;;;;;;;;;;-5.51;39.04;98645.34;6400355;27;19919;-63
2021/12/14 00:48:53;;;;;;;;;;;;;;;-5.25;38.38;98652.88;6399429;27;19923;-62
2021/12/14 00:51:55;;;;;;;;;;;;;;;-4.88;37.45;98648.66;6399570;27;19930;-63
2021/12/14 00:54:56;;;;;;;;;;;;;;;-4.93;37.70;98660.50;6400184;27;19992;-63
2021/12/14 00:58:02;;;;;;;;;;;;;;;-5.00;37.88;98650.09;6399643;27;19943;-62
2021/12/14 01:01:08;;;;;;;;;;;;;;;-5.09;38.24;98649.88;6399022;27;20323;-63
2021/12/14 01:04:12;;;;;;;;;;;;;;;-5.06;38.33;98643.97;6400041;27;19922;-63
2021/12/14 01:07:15;;;;;;;;;;;;;;;-4.94;37.72;98654.53;6399891;27;19927;-63
2021/12/14 01:10:23;;;;;;;;;;;;;;;-5.09;37.94;98643.88;6399778;27;19923;-63
2021/12/14 01:13:29;;;;;;;;;;;;;;;-5.16;37.63;98636.84;6399789;27;20479;-63
2021/12/14 01:16:50;;;;;;;;;;;;;;;-5.30;38.25;98636.47;6398852;27;19923;-63
2021/12/14 01:19:56;;;;;;;;;;;;;;;-5.20;37.71;98630.78;6399633;27;20006;-63
2021/12/14 01:23:01;;;;;;;;;;;;;;;-5.28;37.87;98634.84;6398353;27;19923;-63
2021/12/14 01:26:09;;;;;;;;;;;;;;;-5.57;38.17;98644.34;6398790;27;20384;-63
2021/12/14 01:29:11;;;;;;;;;;;;;;;-5.44;38.51;98630.97;6398618;27;19923;-63
2021/12/14 01:32:13;;;;;;;;;;;;;;;-5.40;38.30;98639.66;6399155;27;19923;-63
2021/12/14 01:35:21;;;;;;;;;;;;;;;-5.32;38.12;98641.59;6399262;27;19983;-64
2021/12/14 01:41:29;;;;;;;;;;;;;;;-5.20;37.78;98635.91;6398210;27;19937;-64
2021/12/14 01:44:36;;;;;;;;;;;;;;;-5.37;38.01;98632.91;6398936;27;19930;-63
2021/12/14 01:47:40;;;;;;;;;;;;;;;-5.21;38.38;98621.31;6398820;27;19923;-63
2021/12/14 01:50:45;;;;;;;;;;;;;;;-5.16;37.94;98617.16;6398790;27;20300;-63
2021/12/14 01:53:50;;;;;;;;;;;;;;;-5.15;37.67;98607.75;6398575;27;19923;-63
2021/12/14 01:56:51;;;;;;;;;;;;;;;-4.98;37.76;98607.38;6398418;27;19923;-63
2021/12/14 01:59:57;;;;;;;;;;;;;;;-5.17;37.86;98612.88;6398063;27;19930;-63
2021/12/14 02:03:01;;;;;;;;;;;;;;;-5.18;38.26;98616.25;6398380;27;19923;-64
2021/12/14 02:06:05;;;;;;;;;;;;;;;-5.15;38.23;98612.91;6398741;27;19923;-63
2021/12/14 02:09:08;;;;;;;;;;;;;;;-5.29;38.36;98613.44;6398351;27;19922;-63
2021/12/14 02:12:13;;;;;;;;;;;;;;;-5.32;38.51;98612.47;6397516;27;19930;-63
2021/12/14 02:15:20;;;;;;;;;;;;;;;-5.34;38.93;98619.28;6398222;27;19943;-63
2021/12/14 02:18:26;;;;;;;;;;;;;;;-5.54;39.33;98609.38;6397927;27;19923;-63
2021/12/14 02:21:29;;;;;;;;;;;;;;;-5.43;39.39;98615.66;6397716;27;19927;-64
2021/12/14 02:24:37;;;;;;;;;;;;;;;-5.24;38.52;98610.97;6397759;27;19923;-63
2021/12/14 02:27:42;;;;;;;;;;;;;;;-5.17;38.88;98597.47;6397885;27;19922;-63
2021/12/14 02:30:46;;;;;;;;;;;;;;;-5.28;38.68;98599.78;6397601;27;19923;-63
2021/12/14 02:33:50;;;;;;;;;;;;;;;-5.15;38.26;98608.66;6397398;27;19937;-64
2021/12/14 02:36:52;;;;;;;;;;;;;;;-5.02;38.67;98605.53;6397776;27;19923;-62
2021/12/14 02:40:03;;;;;;;;;;;;;;;-5.19;38.41;98600.00;6397582;27;20296;-64
2021/12/14 02:43:04;;;;;;;;;;;;;;;-5.09;38.98;98606.25;6395905;27;19930;-64
2021/12/14 02:46:07;;;;;;;;;;;;;;;-5.31;38.87;98606.53;6396726;27;20406;-63
2021/12/14 02:49:12;;;;;;;;;;;;;;;-4.98;38.96;98598.81;6396037;27;20380;-63
2021/12/14 02:52:24;;;;;;;;;;;;;;;-5.15;39.04;98606.09;6396970;27;19927;-63
2021/12/14 02:55:26;;;;;;;;;;;;;;;-5.19;39.55;98601.69;6397229;27;19923;-64
2021/12/14 02:58:27;;;;;;;;;;;;;;;-5.02;39.61;98604.69;6396373;27;19923;-63
2021/12/14 03:01:32;;;;;;;;;;;;;;;-4.97;39.55;98605.66;6396495;27;19960;-64
2021/12/14 03:04:39;;;;;;;;;;;;;;;-4.93;39.13;98598.91;6398575;27;19923;-63
2021/12/14 03:07:46;;;;;;;;;;;;;;;-4.89;39.05;98595.59;6401682;27;20346;-63
2021/12/14 03:10:58;;;;;;;;;;;;;;;-4.79;39.46;98597.53;6401317;27;20029;-63
2021/12/14 03:14:02;;;;;;;;;;;;;;;-4.84;39.61;98593.97;6402122;27;19923;-63
2021/12/14 03:17:03;;;;;;;;;;;;;;;-4.87;39.39;98589.66;6400817;27;19930;-63
2021/12/14 03:20:09;;;;;;;;;;;;;;;-4.81;39.25;98586.34;6401837;27;19923;-65
2021/12/14 03:23:12;;;;;;;;;;;;;;;-4.80;39.56;98578.69;6402046;27;19923;-63
2021/12/14 03:26:15;;;;;;;;;;;;;;;-4.77;39.58;98583.03;6402343;27;20029;-63
2021/12/14 03:29:19;;;;;;;;;;;;;;;-4.75;39.22;98578.81;6400515;27;20400;-63
2021/12/14 03:32:25;;;;;;;;;;;;;;;-4.59;39.03;98586.00;6401750;27;19930;-63
2021/12/14 03:35:37;;;;;;;;;;;;;;;-4.69;39.26;98568.66;6401909;27;19923;-63
2021/12/14 03:38:37;;;;;;;;;;;;;;;-4.72;39.74;98575.44;6401683;27;19941;-64
2021/12/14 03:41:38;;;;;;;;;;;;;;;-4.70;39.68;98566.91;6401977;27;19923;-65
2021/12/14 03:44:44;;;;;;;;;;;;;;;-4.67;39.84;98567.00;6401107;27;19919;-63
2021/12/14 03:47:50;;;;;;;;;;;;;;;-4.71;39.92;98572.91;6400342;27;19946;-63
2021/12/14 03:50:52;;;;;;;;;;;;;;;-4.75;40.04;98566.81;6401272;27;20388;-64
2021/12/14 03:53:54;;;;;;;;;;;;;;;-4.82;40.38;98571.78;6401239;27;19923;-64
2021/12/14 03:56:56;;;;;;;;;;;;;;;-4.74;40.33;98572.81;6400632;27;19919;-63
2021/12/14 03:59:57;;;;;;;;;;;;;;;-4.68;40.52;98572.97;6401216;27;19946;-66
2021/12/14 04:03:04;;;;;;;;;;;;;;;-4.81;40.38;98573.50;6401239;27;19923;-63
2021/12/14 04:06:06;;;;;;;;;;;;;;;-4.84;41.02;98573.44;6400182;27;19923;-64
2021/12/14 04:09:11;;;;;;;;;;;;;;;-4.80;40.77;98580.41;6400091;27;19923;-63
2021/12/14 04:12:14;;;;;;;;;;;;;;;-4.72;40.54;98584.00;6399615;27;19929;-64
2021/12/14 04:15:15;;;;;;;;;;;;;;;-4.65;40.17;98585.88;6400681;27;19923;-65
2021/12/14 04:18:19;;;;;;;;;;;;;;;-4.48;39.97;98577.69;6400933;27;19923;-63
2021/12/14 04:21:22;;;;;;;;;;;;;;;-4.53;40.28;98583.59;6401153;27;19923;-63
2021/12/14 04:24:26;;;;;;;;;;;;;;;-4.71;40.69;98585.72;6400757;27;19930;-63
2021/12/14 04:27:33;;;;;;;;;;;;;;;-4.64;40.92;98589.28;6400025;27;20232;-64
2021/12/14 04:30:34;;;;;;;;;;;;;;;-4.43;40.10;98591.50;6399813;27;20280;-63
2021/12/14 04:33:37;;;;;;;;;;;;;;;-4.36;40.04;98596.81;6400755;27;20297;-63
2021/12/14 04:36:42;;;;;;;;;;;;;;;-4.18;39.69;98596.31;6400562;27;19937;-63
2021/12/14 04:39:53;;;;;;;;;;;;;;;-4.37;40.00;98596.75;6400337;27;19926;-63
2021/12/14 04:53:10;;;;;;;;;;;;;;;-4.12;39.82;98583.59;6399293;27;20402;-63
2021/12/14 04:56:18;;;;;;;;;;;;;;;-4.03;39.29;98587.19;6400035;27;19923;-63
2021/12/14 04:59:23;;;;;;;;;;;;;;;-3.92;39.03;98591.72;6399895;27;20382;-64
2021/12/14 05:02:26;;;;;;;;;;;;;;;-3.90;38.75;98594.34;6398894;27;19923;-64
2021/12/14 05:05:29;;;;;;;;;;;;;;;-3.81;38.80;98604.78;6399648;27;19927;-63
2021/12/14 05:11:38;;;;;;;;;;;;;;;-3.69;38.21;98592.16;6399575;27;19923;-63
2021/12/14 05:14:44;;;;;;;;;;;;;;;-3.51;37.56;98588.19;6399383;27;19926;-64
2021/12/14 05:17:45;;;;;;;;;;;;;;;-3.52;37.71;98581.31;6398889;27;19923;-64
2021/12/14 05:20:47;;;;;;;;;;;;;;;-3.56;37.62;98582.13;6399389;27;19930;-64
2021/12/14 05:23:51;;;;;;;;;;;;;;;-3.39;37.28;98579.00;6381252;27;20292;-64
2021/12/14 05:27:01;;;;;;;;;;;;;;;-3.15;36.26;98575.09;6397896;27;19961;-62
2021/12/14 05:30:09;;;;;;;;;;;;;;;-3.12;36.36;98567.44;6398588;27;19930;-63
2021/12/14 05:33:19;;;;;;;;;;;;;;;-3.05;35.63;98573.56;6398907;27;19923;-63
2021/12/14 05:36:23;;;;;;;;;;;;;;;-3.05;35.73;98569.28;6398380;27;19927;-63
2021/12/14 05:43:07;;;;;;;;;;;;;;;-3.04;35.80;98559.84;6398916;27;20376;-63
2021/12/14 05:46:11;;;;;;;;;;;;;;;-2.78;34.89;98558.50;6398649;27;19921;-63
2021/12/14 05:49:12;;;;;;;;;;;;;;;-2.71;34.98;98562.94;6397697;27;19923;-63
2021/12/14 05:52:19;;;;;;;;;;;;;;;-2.79;35.28;98556.78;6398307;27;20312;-62
2021/12/14 05:55:27;;;;;;;;;;;;;;;-2.57;34.10;98557.13;6398593;27;19927;-63
2021/12/14 05:58:29;;;;;;;;;;;;;;;-2.32;33.61;98559.19;6397597;27;19930;-63
2021/12/14 06:01:33;;;;;;;;;;;;;;;-2.24;33.56;98566.13;6398427;27;19934;-62
2021/12/14 06:04:36;;;;;;;;;;;;;;;-2.49;34.48;98565.84;6398461;27;20304;-64
2021/12/14 06:07:38;;;;;;;;;;;;;;;-2.30;33.85;98565.22;6397274;27;19922;-63
2021/12/14 06:10:42;;;;;;;;;;;;;;;-2.31;34.09;98568.66;6397549;27;19923;-64
2021/12/14 06:13:46;;;;;;;;;;;;;;;-2.20;34.02;98563.63;6398156;27;19922;-64
2021/12/14 06:16:50;;;;;;;;;;;;;;;-2.11;33.91;98571.47;6398024;27;19923;-64
2021/12/14 06:19:53;;;;;;;;;;;;;;;-1.93;33.28;98568.25;6378091;27;20011;-64
2021/12/14 06:22:54;;;;;;;;;;;;;;;-1.96;33.38;98557.91;6397670;27;19930;-64
2021/12/14 06:25:57;;;;;;;;;;;;;;;-2.24;33.74;98563.56;6396653;27;19945;-63
2021/12/14 06:29:05;;;;;;;;;;;;;;;-2.11;34.21;98552.56;6397706;27;19923;-64
2021/12/14 06:32:13;;;;;;;;;;;;;;;-2.06;34.38;98546.63;6396129;27;20395;-64
2021/12/14 06:35:20;;;;;;;;;;;;;;;-1.84;34.12;98552.91;6396351;27;19922;-64
2021/12/14 06:38:28;;;;;;;;;;;;;;;-1.95;34.29;98543.28;6396211;27;19928;-64
2021/12/14 06:41:34;;;;;;;;;;;;;;;-2.10;34.28;98543.97;6397234;27;19929;-64
2021/12/14 06:44:35;;;;;;;;;;;;;;;-2.07;35.02;98542.31;6397247;27;19925;-64
2021/12/14 06:47:40;;;;;;;;;;;;;;;-1.90;34.64;98537.31;6397228;27;19923;-64
2021/12/14 06:50:43;;;;;;;;;;;;;;;-1.76;34.69;98534.03;6397470;27;19923;-64
2021/12/14 06:53:48;;;;;;;;;;;;;;;-1.68;34.67;98532.41;6396045;27;20311;-64
2021/12/14 06:56:52;;;;;;;;;;;;;;;-1.60;34.37;98541.09;6396427;27;19930;-66
2021/12/14 06:59:56;;;;;;;;;;;;;;;-1.55;34.28;98526.53;6397370;27;19923;-64
2021/12/14 07:03:03;;;;;;;;;;;;;;;-1.67;34.75;98534.13;6396947;27;19923;-62
2021/12/14 07:06:07;;;;;;;;;;;;;;;-1.61;33.87;98524.75;6396624;27;19927;-64
2021/12/14 07:09:13;;;;;;;;;;;;;;;-1.51;34.77;98535.16;6396552;27;19996;-64
2021/12/14 07:12:18;;;;;;;;;;;;;;;-1.39;34.50;98522.34;6396611;27;19923;-64
2021/12/14 07:15:26;;;;;;;;;;;;;;;-1.34;34.63;98527.56;6396827;27;19923;-63
2021/12/14 07:18:32;;;;;;;;;;;;;;;-1.18;33.78;98521.69;6397108;27;19919;-65
2021/12/14 07:21:55;;;;;;;;;;;;;;;-0.95;32.63;98527.91;6396675;27;19950;-63
2021/12/14 07:24:59;;;;;;;;;;;;;;;-1.02;33.21;98523.56;6395841;27;19946;-64
2021/12/14 07:28:00;;;;;;;;;;;;;;;-0.95;33.77;98525.31;6396959;27;20456;-63
2021/12/14 07:31:02;;;;;;;;;;;;;;;-0.81;32.98;98520.25;6395658;27;19923;-63
2021/12/14 07:34:03;;;;;;;;;;;;;;;-0.64;32.75;98520.34;6396209;27;20431;-65
2021/12/14 07:37:05;;;;;;;;;;;;;;;-0.64;32.45;98511.72;6396364;27;19971;-64
2021/12/14 07:40:08;;;;;;;;;;;;;;;-0.64;32.50;98515.19;6396636;27;20396;-64
2021/12/14 07:43:14;;;;;;;;;;;;;;;-0.41;31.59;98517.88;6396903;27;19927;-64
2021/12/14 07:46:27;;;;;;;;;;;;;;;-0.53;32.63;98518.69;6396787;27;20395;-64
2021/12/14 07:49:33;;;;;;;;;;;;;;;-0.53;32.51;98516.09;6395893;27;19923;-63
2021/12/14 07:52:36;;;;;;;;;;;;;;;-0.57;33.15;98524.69;6401366;27;20452;-65
2021/12/14 07:55:42;;;;;;;;;;;;;;;-0.57;33.40;98522.09;6401720;27;19923;-63
2021/12/14 07:58:47;;;;;;;;;;;;;;;-0.49;32.95;98525.59;6401410;27;20323;-64
2021/12/14 08:02:06;;;;;;;;;;;;;;;-0.46;33.52;98517.00;6401240;27;19923;-64
2021/12/14 08:05:09;;;;;;;;;;;;;;;-0.40;32.99;98521.34;6401195;27;20014;-64
2021/12/14 08:08:20;;;;;;;;;;;;;;;-0.18;31.76;98523.16;6400406;27;20007;-64
2021/12/14 08:14:41;;;;;;;;;;;;;;;-0.15;31.66;98528.34;6401052;27;19946;-64
2021/12/14 08:17:43;;;;;;;;;;;;;;;-0.10;31.98;98531.81;6400008;27;19922;-63
2021/12/14 08:20:44;;;;;;;;;;;;;;;-0.03;31.50;98532.72;6400549;27;19923;-63
2021/12/14 08:23:54;;;;;;;;;;;;;;;-0.06;31.12;98531.00;6399970;27;19923;-64
2021/12/14 08:26:57;;;;;;;;;;;;;;;0.03;30.93;98527.56;6400215;27;20406;-63
2021/12/14 08:30:07;;;;;;;;;;;;;;;-0.17;31.84;98540.44;6400688;27;19923;-63
2021/12/14 08:33:17;;;;;;;;;;;;;;;0.07;31.37;98544.84;6400688;27;19923;-63
2021/12/14 08:36:21;;;;;;;;;;;;;;;0.15;31.07;98537.09;6399795;27;20453;-64
2021/12/14 08:39:26;;;;;;;;;;;;;;;-0.05;30.74;98539.63;6400512;27;19930;-64
2021/12/14 08:42:39;;;;;;;;;;;;;;;-0.11;31.29;98540.47;6399977;27;19923;-64
2021/12/14 08:45:47;;;;;;;;;;;;;;;-0.10;31.23;98536.16;6400306;27;19923;-64
2021/12/14 08:48:51;;;;;;;;;;;;;;;-0.26;31.51;98540.38;6400276;27;20276;-63
2021/12/14 08:51:52;;;;;;;;;;;;;;;-0.17;30.61;98532.69;6399085;27;19922;-63
2021/12/14 08:54:56;;;;;;;;;;;;;;;-0.19;31.33;98539.56;6399689;27;19923;-63
2021/12/14 08:58:00;;;;;;;;;;;;;;;-0.20;30.59;98530.03;6400193;27;19930;-64
2021/12/14 09:01:08;;;;;;;;;;;;;;;-0.20;30.38;98524.88;6381574;27;19930;-63
2021/12/14 09:04:13;;;;;;;;;;;;;;;-0.11;29.91;98524.94;6397977;27;19956;-64
2021/12/14 09:07:16;;;;;;;;;;;;;;;-0.21;29.76;98520.56;6399585;27;19927;-64
2021/12/14 09:10:20;;;;;;;;;;;;;;;-0.18;29.88;98518.00;6398205;27;19933;-64
2021/12/14 09:13:26;;;;;;;;;;;;;;;0.13;29.05;98523.28;6399704;27;19923;-64
2021/12/14 09:16:29;;;;;;;;;;;;;;;0.15;28.19;98522.44;6380903;27;19927;-63
2021/12/14 09:19:35;;;;;;;;;;;;;;;-0.03;29.18;98520.66;6399536;27;19930;-63
2021/12/14 09:22:42;;;;;;;;;;;;;;;-0.01;28.53;98521.50;6397760;27;19927;-63
2021/12/14 09:25:44;;;;;;;;;;;;;;;-0.05;28.93;98527.53;6397989;27;19934;-63
2021/12/14 09:28:47;;;;;;;;;;;;;;;-0.14;29.25;98524.94;6398150;27;19930;-64
2021/12/14 09:31:50;;;;;;;;;;;;;;;0.07;28.84;98523.28;6399145;27;20269;-64
2021/12/14 09:34:52;;;;;;;;;;;;;;;0.06;28.83;98526.69;6399174;27;20384;-63
2021/12/14 09:37:55;;;;;;;;;;;;;;;0.25;28.51;98518.13;6398278;27;20036;-64
2021/12/14 09:40:56;;;;;;;;;;;;;;;-0.02;29.32;98514.63;6398236;27;19930;-63
2021/12/14 09:44:05;;;;;;;;;;;;;;;-0.10;29.60;98515.44;6398468;27;19973;-65
2021/12/14 09:47:10;;;;;;;;;;;;;;;-0.08;29.20;98518.91;6398914;27;19934;-64
2021/12/14 09:50:18;;;;;;;;;;;;;;;-0.25;30.32;98511.06;6397918;27;19923;-64
2021/12/14 09:53:23;;;;;;;;;;;;;;;-0.46;31.21;98514.41;6398192;27;19945;-64
2021/12/14 09:56:26;;;;;;;;;;;;;;;-0.36;31.48;98523.09;6398077;27;19926;-63
2021/12/14 09:59:29;;;;;;;;;;;;;;;-0.42;31.17;98515.31;6378899;27;20075;-64
2021/12/14 10:02:32;;;;;;;;;;;;;;;-0.60;31.49;98519.50;6398303;27;20380;-66
2021/12/14 10:05:59;;;;;;;;;;;;;;;-0.76;31.97;98525.44;6398529;27;20310;-63
2021/12/14 10:09:05;;;;;;;;;;;;;;;-0.50;31.31;98520.44;6386367;27;19923;-65
2021/12/14 10:15:22;;;;;;;;;;;;;;;-0.55;32.46;98517.81;6397191;27;20333;-63
2021/12/14 10:18:27;;;;;;;;;;;;;;;-0.81;32.75;98521.97;6397346;27;19923;-63
2021/12/14 10:21:30;;;;;;;;;;;;;;;-0.87;32.84;98519.34;6396715;27;19930;-63
2021/12/14 10:24:35;;;;;;;;;;;;;;;-1.01;33.68;98530.44;6396697;27;20403;-63
2021/12/14 10:27:38;;;;;;;;;;;;;;;-0.87;33.04;98529.69;6396720;27;19926;-64
2021/12/14 10:30:45;;;;;;;;;;;;;;;-0.72;33.37;98515.13;6396389;27;19930;-63
2021/12/14 10:33:51;;;;;;;;;;;;;;;-0.79;33.72;98518.53;6397486;27;19923;-64
2021/12/14 10:37:08;;;;;;;;;;;;;;;-0.80;33.49;98515.94;6395837;27;19923;-63
2021/12/14 10:43:31;;;;;;;;;;;;;;;-0.81;33.56;98516.78;6396897;27;19923;-64
2021/12/14 10:46:34;;;;;;;;;;;;;;;-0.62;33.66;98512.59;6396654;27;19919;-64
2021/12/14 10:49:39;;;;;;;;;;;;;;;-0.50;33.14;98516.13;6397257;27;20067;-64
2021/12/14 10:52:43;;;;;;;;;;;;;;;-0.51;33.25;98519.56;6396034;27;20407;-63
2021/12/14 10:55:47;;;;;;;;;;;;;;;-0.67;33.45;98522.91;6396538;27;20296;-64
2021/12/14 10:58:54;;;;;;;;;;;;;;;-0.57;33.70;98524.69;6397321;27;19923;-64
2021/12/14 11:01:56;;;;;;;;;;;;;;;-0.59;33.53;98534.19;6395549;27;20071;-65
2021/12/14 11:04:58;;;;;;;;;;;;;;;-0.64;33.23;98533.28;6396519;27;19923;-65
2021/12/14 11:08:01;;;;;;;;;;;;;;;-0.71;33.75;98528.91;6397136;27;20407;-65
2021/12/14 11:11:06;;;;;;;;;;;;;;;-0.74;33.63;98532.34;6396162;27;19930;-64
2021/12/14 11:14:11;;;;;;;;;;;;;;;-0.58;33.77;98535.03;6397293;27;19923;-65
2021/12/14 11:20:36;;;;;;;;;;;;;;;-0.64;33.51;98538.44;6396056;27;19945;-64
2021/12/14 11:23:40;;;;;;;;;;;;;;;-0.66;33.77;98540.16;6395923;27;19930;-64
2021/12/14 11:26:42;;;;;;;;;;;;;;;-0.57;33.99;98540.19;6399079;27;19953;-63
2021/12/14 11:29:44;;;;;;;;;;;;;;;-0.80;34.08;98546.94;6401974;27;19934;-64
2021/12/14 11:33:01;;;;;;;;;;;;;;;-0.83;34.41;98546.94;6401693;27;19923;-67
2021/12/14 11:36:11;;;;;;;;;;;;;;;-0.81;34.29;98550.41;6400902;27;20029;-65
2021/12/14 11:39:23;;;;;;;;;;;;;;;-0.89;34.36;98546.88;6401907;27;19931;-64
2021/12/14 11:42:30;;;;;;;;;;;;;;;-0.87;34.31;98555.53;6401698;27;20422;-65
2021/12/14 11:45:34;;;;;;;;;;;;;;;-1.00;34.03;98545.06;6401099;27;19930;-64
2021/12/14 11:48:37;;;;;;;;;;;;;;;-0.91;34.31;98545.16;6401653;27;19923;-63
2021/12/14 11:51:38;;;;;;;;;;;;;;;-0.76;34.31;98548.72;6401229;27;19923;-64
2021/12/14 11:54:44;;;;;;;;;;;;;;;-0.61;33.37;98548.81;6401052;27;20315;-63
2021/12/14 11:57:48;;;;;;;;;;;;;;;-0.74;33.58;98546.97;6400488;27;20000;-65
2021/12/14 12:00:58;;;;;;;;;;;;;;;-0.81;33.52;98550.41;6400256;27;19923;-64
2021/12/14 12:04:04;;;;;;;;;;;;;;;-0.65;33.22;98541.91;6401045;27;20311;-64
2021/12/14 12:10:11;;;;;;;;;;;;;;;-0.88;33.52;98553.78;6401126;27;19930;-63
2021/12/14 12:13:13;;;;;;;;;;;;;;;-0.97;33.82;98542.50;6382136;27;20315;-65
2021/12/14 12:16:17;;;;;;;;;;;;;;;-0.74;33.25;98557.31;6401067;27;19929;-64
2021/12/14 12:19:20;;;;;;;;;;;;;;;-1.08;33.85;98551.91;6400148;27;19923;-63
2021/12/14 12:22:21;;;;;;;;;;;;;;;-0.95;33.90;98563.22;6398997;27;20396;-64
2021/12/14 12:25:22;;;;;;;;;;;;;;;-1.13;33.80;98561.34;6399382;27;19929;-63
2021/12/14 12:28:26;;;;;;;;;;;;;;;-1.05;33.74;98551.91;6399980;27;20419;-64
2021/12/14 12:31:27;;;;;;;;;;;;;;;-1.15;34.38;98551.00;6400070;27;20312;-64
2021/12/14 12:34:37;;;;;;;;;;;;;;;-1.09;34.01;98531.22;6400385;27;19927;-64
2021/12/14 12:37:42;;;;;;;;;;;;;;;-1.13;34.44;98538.09;6399138;27;19930;-64
2021/12/14 12:40:49;;;;;;;;;;;;;;;-1.22;34.43;98538.88;6399574;27;20280;-63
2021/12/14 12:43:51;;;;;;;;;;;;;;;-1.32;34.13;98541.38;6399304;27;19923;-64
2021/12/14 12:47:12;;;;;;;;;;;;;;;-1.11;33.83;98538.94;6400069;27;19946;-63
2021/12/14 12:50:13;;;;;;;;;;;;;;;-1.38;34.61;98535.28;6400196;27;19927;-64
2021/12/14 12:53:23;;;;;;;;;;;;;;;-1.23;34.51;98541.44;6400065;27;19933;-64
2021/12/14 12:56:27;;;;;;;;;;;;;;;-1.14;33.93;98526.00;6399870;27;19923;-65
2021/12/14 12:59:48;;;;;;;;;;;;;;;-1.30;34.82;98539.66;6399135;27;19923;-64
2021/12/14 13:03:00;;;;;;;;;;;;;;;-1.09;33.80;98524.34;6399982;27;19923;-63
2021/12/14 13:06:09;;;;;;;;;;;;;;;-1.38;34.71;98535.28;6399754;27;19923;-65
2021/12/14 13:09:11;;;;;;;;;;;;;;;-1.59;35.37;98528.19;6398796;27;19923;-64
2021/12/14 13:12:14;;;;;;;;;;;;;;;-1.44;35.01;98527.50;6399459;27;19934;-65
2021/12/14 13:15:26;;;;;;;;;;;;;;;-1.78;35.81;98535.72;6399481;27;20013;-63
2021/12/14 13:18:27;;;;;;;;;;;;;;;-1.91;36.42;98527.00;6398858;27;19980;-64
2021/12/14 13:21:47;;;;;;;;;;;;;;;-1.93;36.02;98526.97;6399397;27;20348;-64
2021/12/14 13:24:51;;;;;;;;;;;;;;;-2.04;36.60;98533.72;6399008;27;19929;-66
2021/12/14 13:27:52;;;;;;;;;;;;;;;-2.02;36.40;98526.88;6398127;27;19968;-64
2021/12/14 13:30:55;;;;;;;;;;;;;;;-2.01;36.81;98533.75;6399131;27;19923;-64
2021/12/14 13:33:57;;;;;;;;;;;;;;;-1.97;36.62;98524.38;6398550;27;20407;-65
2021/12/14 13:37:01;;;;;;;;;;;;;;;-2.04;36.28;98523.41;6398639;27;19923;-64
2021/12/14 13:40:21;;;;;;;;;;;;;;;-2.01;36.03;98520.84;6397949;27;20026;-65
2021/12/14 13:43:36;;;;;;;;;;;;;;;-2.04;36.33;98528.56;6398627;27;19923;-63
2021/12/14 13:46:44;;;;;;;;;;;;;;;-2.06;36.11;98523.41;6398599;27;19923;-65
2021/12/14 13:49:48;;;;;;;;;;;;;;;-1.86;35.73;98523.63;6397692;27;19927;-64
2021/12/14 13:52:52;;;;;;;;;;;;;;;-1.81;35.54;98529.72;6398054;27;19922;-63
2021/12/14 13:55:58;;;;;;;;;;;;;;;-1.79;35.62;98524.53;6398364;27;19923;-64
2021/12/14 13:59:00;;;;;;;;;;;;;;;-1.97;35.46;98525.22;6397632;27;19975;-64
2021/12/14 14:02:01;;;;;;;;;;;;;;;-2.00;35.63;98514.00;6397369;27;19923;-64
2021/12/14 14:05:03;;;;;;;;;;;;;;;-2.16;36.33;98510.38;6397615;27;19926;-66
2021/12/14 14:08:09;;;;;;;;;;;;;;;-2.00;36.36;98524.31;6397467;27;20033;-65
2021/12/14 14:11:22;;;;;;;;;;;;;;;-2.16;36.49;98518.13;6396891;27;19929;-65
2021/12/14 14:14:27;;;;;;;;;;;;;;;-1.98;36.03;98514.88;6397435;27;19927;-65
2021/12/14 14:17:34;;;;;;;;;;;;;;;-2.15;36.22;98512.09;6397878;27;19923;-65
2021/12/14 14:20:40;;;;;;;;;;;;;;;-2.21;36.45;98514.59;6397399;27;19930;-66
2021/12/14 14:23:47;;;;;;;;;;;;;;;-2.22;36.02;98515.47;6396612;27;19923;-64
2021/12/14 14:26:48;;;;;;;;;;;;;;;-2.33;36.45;98511.03;6397761;27;19926;-67
2021/12/14 14:29:52;;;;;;;;;;;;;;;-2.43;35.98;98504.03;6397791;27;19923;-63
2021/12/14 14:33:00;;;;;;;;;;;;;;;-2.13;35.40;98502.66;6397365;27;20017;-62
2021/12/14 14:36:09;;;;;;;;;;;;;;;-2.22;35.35;98497.41;6396264;27;19927;-65
2021/12/14 14:39:18;;;;;;;;;;;;;;;-2.31;35.47;98503.31;6397071;27;19919;-64
2021/12/14 14:42:24;;;;;;;;;;;;;;;-2.36;35.65;98516.16;6396638;27;19927;-64
2021/12/14 14:45:27;;;;;;;;;;;;;;;-2.16;35.12;98503.50;6396486;27;19923;-64
2021/12/14 14:48:28;;;;;;;;;;;;;;;-2.37;35.47;98504.13;6396742;27;20280;-63
2021/12/14 14:51:47;;;;;;;;;;;;;;;-2.35;35.71;98517.91;6397317;27;19923;-63
2021/12/14 14:55:17;;;;;;;;;;;;;;;-2.48;36.02;98510.84;6397158;27;19923;-63
2021/12/14 14:58:27;;;;;;;;;;;;;;;-2.46;36.18;98519.47;6376357;27;19923;-64
2021/12/14 15:01:32;;;;;;;;;;;;;;;-2.51;35.99;98519.41;6396702;27;19923;-64
2021/12/14 15:04:51;;;;;;;;;;;;;;;-2.45;35.86;98510.88;6378438;27;19923;-65
2021/12/14 15:07:57;;;;;;;;;;;;;;;-2.42;35.42;98503.19;6397265;27;20000;-64
2021/12/14 15:11:04;;;;;;;;;;;;;;;-2.23;35.52;98500.84;6397501;27;20426;-64
2021/12/14 15:14:08;;;;;;;;;;;;;;;-2.19;35.76;98500.03;6397171;27;19957;-66
2021/12/14 15:17:15;;;;;;;;;;;;;;;-2.08;35.69;98491.56;6396887;27;20021;-65
2021/12/14 15:20:33;;;;;;;;;;;;;;;-2.40;36.22;98493.78;6397189;27;19919;-65
2021/12/14 15:23:35;;;;;;;;;;;;;;;-2.46;36.71;98488.53;6394729;27;19923;-64
2021/12/14 15:26:37;;;;;;;;;;;;;;;-2.68;36.76;98482.25;6377913;27;20017;-65
2021/12/14 15:29:53;;;;;;;;;;;;;;;-2.77;37.22;98482.97;6397038;27;19930;-65
2021/12/14 15:33:24;;;;;;;;;;;;;;;-3.01;37.53;98472.31;6396702;27;20021;-64
2021/12/14 15:36:27;;;;;;;;;;;;;;;-2.89;37.41;98472.50;6395772;27;19923;-65
2021/12/14 15:39:36;;;;;;;;;;;;;;;-3.25;38.12;98465.13;6396113;27;19934;-65
2021/12/14 15:42:43;;;;;;;;;;;;;;;-3.05;37.90;98460.25;6397045;27;19923;-65
2021/12/14 15:45:47;;;;;;;;;;;;;;;-3.21;38.22;98454.00;6395750;27;19939;-64
2021/12/14 15:49:02;;;;;;;;;;;;;;;-2.95;37.86;98457.81;6396693;27;19923;-64
2021/12/14 15:52:15;;;;;;;;;;;;;;;-3.04;37.56;98451.69;6396795;27;20388;-64
2021/12/14 15:55:19;;;;;;;;;;;;;;;-3.23;37.92;98458.25;6396729;27;20022;-64
2021/12/14 15:58:23;;;;;;;;;;;;;;;-3.32;37.86;98458.13;6396070;27;19972;-65
2021/12/14 16:01:27;;;;;;;;;;;;;;;-3.33;38.00;98458.97;6395439;27;19923;-64
2021/12/14 16:04:30;;;;;;;;;;;;;;;-3.12;37.58;98448.13;6396735;27;19923;-64
2021/12/14 16:07:36;;;;;;;;;;;;;;;-3.08;37.28;98449.91;6396462;27;19931;-65
2021/12/14 16:10:39;;;;;;;;;;;;;;;-3.19;37.12;98447.19;6395517;27;19929;-67
2021/12/14 16:17:06;;;;;;;;;;;;;;;-3.13;36.73;98436.09;6399894;27;19962;-64
2021/12/14 16:20:11;;;;;;;;;;;;;;;-3.24;36.88;98433.38;6400621;27;19923;-64
2021/12/14 16:23:14;;;;;;;;;;;;;;;-3.09;36.76;98448.16;6399750;27;19927;-64
2021/12/14 16:26:17;;;;;;;;;;;;;;;-3.33;37.07;98428.94;6399920;27;19922;-64
2021/12/14 16:29:18;;;;;;;;;;;;;;;-3.28;37.03;98442.75;6399981;27;19929;-64
2021/12/14 16:32:19;;;;;;;;;;;;;;;-2.99;36.12;98429.44;6400607;27;19923;-64
2021/12/14 16:35:24;;;;;;;;;;;;;;;-3.19;36.19;98426.59;6400688;27;19930;-64
2021/12/14 16:38:29;;;;;;;;;;;;;;;-3.07;36.17;98425.88;6400424;27;19923;-65
2021/12/14 16:41:40;;;;;;;;;;;;;;;-2.88;35.26;98432.16;6399497;27;19926;-64
2021/12/14 16:44:53;;;;;;;;;;;;;;;-3.00;35.63;98438.88;6400583;27;20400;-65
2021/12/14 16:47:57;;;;;;;;;;;;;;;-2.73;34.71;98420.34;6399618;27;19927;-64
2021/12/14 16:51:10;;;;;;;;;;;;;;;-2.86;34.98;98431.34;6400006;27;19923;-65